Time;durP1;ratioP1;P1;durP2;ratioP2;P2;SDS_P1;SDS_P2;PMS_P1;PMS_P2;Temp;Humidity;BMP_temperature;BMP_pressure;BME280_temperature;BME280_humidity;BME280_pressure;Samples;Min_cycle;Max_cycle;Signal;HPM_P1;HPM_P2
2023/01/01 00:01:39;;;;;;;19.67;6.45;;;;;;;15.04;66.08;100755.09;5050336;28;20029;-81
2023/01/01 00:04:08;;;;;;;11.57;7.78;;;;;;;15.04;64.94;100743.53;5050134;28;20043;-81
2023/01/01 00:06:34;;;;;;;12.55;5.03;;;;;;;15.15;65.07;100772.28;5032863;28;20036;-81
2023/01/01 00:11:43;;;;;;;13.00;5.07;;;;;;;15.10;65.21;100761.41;5050719;28;20930;-81
2023/01/01 00:14:09;;;;;;;13.55;5.03;;;;;;;15.03;65.73;100761.50;5044895;28;20029;-81
2023/01/01 00:16:34;;;;;;;14.90;4.97;;;;;;;15.06;65.03;100771.81;5045166;28;20040;-82
2023/01/01 00:19:00;;;;;;;11.13;3.85;;;;;;;15.04;65.73;100773.06;5046237;28;20032;-81
2023/01/01 00:21:25;;;;;;;12.48;4.10;;;;;;;15.01;65.99;100786.94;5045463;28;20120;-80
2023/01/01 00:23:50;;;;;;;11.68;4.65;;;;;;;14.96;65.20;100771.53;5026996;28;20033;-81
2023/01/01 00:26:17;;;;;;;11.45;4.68;;;;;;;14.98;65.03;100769.41;5045623;28;20049;-82
2023/01/01 00:28:44;;;;;;;10.55;3.85;;;;;;;14.97;64.85;100766.97;5045378;28;20021;-81
2023/01/01 00:31:17;;;;;;;9.38;3.95;;;;;;;15.01;64.36;100774.34;5044862;28;20036;-82
2023/01/01 00:33:43;;;;;;;10.55;2.83;;;;;;;15.02;63.89;100780.53;5044044;28;20021;-81
2023/01/01 00:36:13;;;;;;;5.35;2.70;;;;;;;15.03;63.79;100774.91;5043536;28;20020;-82
2023/01/01 00:38:39;;;;;;;11.63;3.75;;;;;;;15.10;63.01;100767.59;5044185;28;20029;-82
2023/01/01 00:41:05;;;;;;;10.75;3.17;;;;;;;15.08;62.57;100764.31;5026722;28;20028;-82
2023/01/01 00:43:31;;;;;;;8.38;3.30;;;;;;;15.11;63.01;100763.84;5043262;28;20024;-82
2023/01/01 00:45:57;;;;;;;7.60;3.60;;;;;;;15.09;62.45;100751.69;5043943;28;20032;-82
2023/01/01 00:48:22;;;;;;;15.10;3.92;;;;;;;15.13;63.02;100764.44;5043762;28;20419;-81
2023/01/01 00:50:49;;;;;;;7.53;2.95;;;;;;;15.13;62.88;100755.56;5043295;28;20033;-82
2023/01/01 00:53:14;;;;;;;9.15;3.45;;;;;;;15.10;63.24;100762.22;5025240;28;20028;-81
2023/01/01 00:55:40;;;;;;;12.63;3.25;;;;;;;15.12;63.17;100770.06;5047211;28;20060;-82
2023/01/01 00:58:06;;;;;;;13.40;4.20;;;;;;;15.09;63.05;100760.59;5047525;28;20115;-82
2023/01/01 01:00:31;;;;;;;9.98;2.80;;;;;;;15.00;62.69;100745.84;5047615;28;20364;-81
2023/01/01 01:02:57;;;;;;;7.65;3.85;;;;;;;15.08;63.99;100769.69;5047279;28;20578;-82
2023/01/01 01:05:22;;;;;;;7.00;3.88;;;;;;;15.03;63.59;100768.72;5029227;28;20029;-82
2023/01/01 01:07:48;;;;;;;9.45;3.72;;;;;;;15.00;63.58;100779.94;5032960;28;20036;-82
2023/01/01 01:10:13;;;;;;;10.60;3.75;;;;;;;14.97;63.67;100767.78;5033907;28;20029;-81
2023/01/01 01:12:38;;;;;;;9.70;2.53;;;;;;;15.05;63.12;100788.13;5051858;28;20019;-81
2023/01/01 01:15:05;;;;;;;6.72;2.67;;;;;;;14.98;63.35;100764.03;5051777;28;20456;-81
2023/01/01 01:17:31;;;;;;;6.68;2.50;;;;;;;15.00;62.82;100793.38;5042032;28;20033;-79
2023/01/01 01:19:56;;;;;;;14.35;5.45;;;;;;;15.00;63.15;100799.56;5033640;28;20037;-78
2023/01/01 01:22:22;;;;;;;12.60;2.88;;;;;;;14.97;63.95;100783.09;5052089;28;20432;-78
2023/01/01 01:24:47;;;;;;;10.23;3.15;;;;;;;14.94;63.95;100776.31;5051332;28;20032;-78
2023/01/01 01:27:13;;;;;;;9.23;2.53;;;;;;;14.95;63.53;100766.38;5050981;28;20029;-78
2023/01/01 01:29:38;;;;;;;4.00;2.83;;;;;;;14.94;63.23;100770.13;5051197;28;20039;-78
2023/01/01 01:32:04;;;;;;;7.07;2.58;;;;;;;14.93;64.31;100771.16;5033270;28;20029;-78
2023/01/01 01:34:30;;;;;;;5.78;2.13;;;;;;;14.87;65.04;100789.81;5050936;28;20029;-79
2023/01/01 01:36:55;;;;;;;9.73;3.45;;;;;;;14.84;64.88;100790.25;5051031;28;20036;-79
2023/01/01 01:39:21;;;;;;;12.75;2.55;;;;;;;14.81;64.47;100795.28;5051173;28;20025;-79
2023/01/01 01:41:46;;;;;;;7.13;2.88;;;;;;;14.84;63.87;100801.00;5033126;28;20451;-78
2023/01/01 01:44:46;;;;;;;5.90;2.83;;;;;;;14.83;64.69;100798.56;5050620;28;20063;-79
2023/01/01 01:47:37;;;;;;;11.35;2.80;;;;;;;14.77;64.95;100802.94;5050774;28;20033;-78
2023/01/01 01:50:08;;;;;;;5.57;2.40;;;;;;;14.77;64.36;100811.00;5038937;28;20052;-78
2023/01/01 01:52:36;;;;;;;8.35;3.03;;;;;;;14.73;63.77;100793.72;5050724;28;20024;-78
2023/01/01 01:55:06;;;;;;;7.28;3.08;;;;;;;14.69;63.51;100796.00;5050511;28;20029;-78
2023/01/01 01:57:32;;;;;;;7.03;2.13;;;;;;;14.61;64.01;100814.28;5051582;28;20027;-78
2023/01/01 01:59:59;;;;;;;5.88;2.63;;;;;;;14.58;64.50;100820.13;5051346;28;20375;-78
2023/01/01 02:02:33;;;;;;;4.78;3.00;;;;;;;14.59;63.87;100819.91;5051105;28;20067;-78
2023/01/01 02:05:00;;;;;;;9.05;3.17;;;;;;;14.58;64.35;100822.78;5051281;28;20048;-78
2023/01/01 02:07:29;;;;;;;9.45;2.50;;;;;;;14.56;63.81;100814.13;5051180;28;20025;-78
2023/01/01 02:09:55;;;;;;;7.60;2.42;;;;;;;14.59;64.17;100829.78;5051178;28;20032;-79
2023/01/01 02:12:20;;;;;;;8.77;2.13;;;;;;;14.52;64.64;100826.34;5051130;28;20435;-78
2023/01/01 02:14:46;;;;;;;7.22;3.47;;;;;;;14.51;64.58;100838.13;5051025;28;20028;-78
2023/01/01 02:17:21;;;;;;;4.43;2.72;;;;;;;14.45;64.59;100846.00;5051015;28;20629;-78
2023/01/01 02:20:00;;;;;;;7.43;2.55;;;;;;;14.43;64.72;100837.34;5050810;28;20075;-79
2023/01/01 02:22:44;;;;;;;6.18;2.60;;;;;;;14.45;64.46;100835.28;5050519;28;20498;-78
2023/01/01 02:25:36;;;;;;;6.38;2.00;;;;;;;14.46;63.90;100842.31;5032091;28;20036;-78
2023/01/01 02:28:04;;;;;;;;;;;;;;;14.50;66.00;100849.91;5050689;28;20116;-78
2023/01/01 02:30:30;;;;;;;8.68;2.83;;;;;;;14.41;63.79;100830.59;5049840;28;19961;-78
2023/01/01 02:32:59;;;;;;;3.05;1.85;;;;;;;14.44;63.96;100827.47;5032001;28;20138;-78
2023/01/01 02:35:35;;;;;;;6.85;2.53;;;;;;;14.41;64.75;100834.09;5049904;28;20029;-78
2023/01/01 02:38:17;;;;;;;9.52;2.50;;;;;;;14.38;64.16;100834.53;5050192;28;20028;-78
2023/01/01 02:40:47;;;;;;;5.05;2.22;;;;;;;14.30;63.91;100824.06;5049960;28;20108;-78
2023/01/01 02:43:12;;;;;;;5.05;2.45;;;;;;;14.34;64.91;100838.69;5049985;28;20740;-78
2023/01/01 02:45:38;;;;;;;3.60;2.30;;;;;;;14.34;63.73;100827.16;5049973;28;20115;-78
2023/01/01 02:48:38;;;;;;;6.05;2.33;;;;;;;14.35;65.65;100839.53;5031774;28;20044;-78
2023/01/01 02:51:13;;;;;;;3.65;2.45;;;;;;;14.28;64.56;100830.72;5031998;28;20033;-78
2023/01/01 02:54:17;;;;;;;4.30;2.58;;;;;;;14.27;65.07;100824.53;5049907;28;20024;-79
2023/01/01 02:56:50;;;;;;;7.35;1.90;;;;;;;14.22;65.58;100840.47;5028693;28;20066;-78
2023/01/01 03:02:36;;;;;;;10.90;1.83;;;;;;;14.30;65.55;100848.22;5051363;28;20036;-78
2023/01/01 03:05:09;;;;;;;5.15;1.80;;;;;;;14.27;65.08;100848.66;5046247;28;20047;-78
2023/01/01 03:07:41;;;;;;;8.27;2.40;;;;;;;14.31;64.81;100855.25;5056483;28;20040;-78
2023/01/01 03:10:22;;;;;;;5.95;2.08;;;;;;;14.28;64.51;100833.38;5054847;28;20057;-79
2023/01/01 03:12:59;;;;;;;4.55;1.90;;;;;;;14.32;65.00;100859.56;5052831;28;20036;-78
2023/01/01 03:15:49;;;;;;;5.90;1.67;;;;;;;14.35;64.37;100869.03;5054290;28;20033;-78
2023/01/01 03:18:24;;;;;;;3.83;1.67;;;;;;;14.33;64.42;100855.84;5055456;28;20040;-78
2023/01/01 03:20:53;;;;;;;3.03;1.48;;;;;;;14.27;65.91;100856.72;5052185;28;20020;-79
2023/01/01 03:23:25;;;;;;;5.75;1.63;;;;;;;14.26;65.09;100857.78;5033541;28;20060;-78
2023/01/01 03:25:56;;;;;;;3.72;1.42;;;;;;;14.27;65.88;100862.09;5056852;28;20024;-78
2023/01/01 03:28:26;;;;;;;5.95;2.00;;;;;;;14.28;65.92;100870.94;5059995;28;20390;-78
2023/01/01 03:30:53;;;;;;;6.10;1.42;;;;;;;14.25;65.84;100877.56;5054623;28;20029;-78
2023/01/01 03:33:30;;;;;;;6.07;2.15;;;;;;;14.26;65.70;100873.88;5054544;28;20043;-78
2023/01/01 03:36:05;;;;;;;7.13;2.63;;;;;;;14.20;66.24;100867.53;5053940;28;20037;-78
2023/01/01 03:38:39;;;;;;;5.13;2.40;;;;;;;14.18;66.19;100874.16;5052288;28;20036;-78
2023/01/01 03:41:17;;;;;;;6.25;2.15;;;;;;;14.18;66.77;100866.09;5061699;28;20436;-78
2023/01/01 03:43:51;;;;;;;8.27;2.38;;;;;;;14.11;66.94;100866.16;5059888;28;20110;-78
2023/01/01 03:46:22;;;;;;;9.82;2.38;;;;;;;14.15;66.00;100878.09;5052874;28;20024;-78
2023/01/01 03:48:56;;;;;;;3.53;1.70;;;;;;;14.18;66.22;100876.84;5061110;28;20036;-78
2023/01/01 03:51:26;;;;;;;5.65;2.47;;;;;;;14.15;67.63;100880.78;5058064;28;20028;-78
2023/01/01 03:53:55;;;;;;;8.82;2.08;;;;;;;14.14;67.04;100903.25;5058036;28;20025;-78
2023/01/01 03:56:47;;;;;;;4.82;1.67;;;;;;;14.14;67.90;100911.31;5052247;28;20029;-78
2023/01/01 03:59:20;;;;;;;4.93;1.30;;;;;;;14.10;68.26;100896.69;5048495;28;20106;-78
2023/01/01 04:01:50;;;;;;;5.18;1.80;;;;;;;14.10;67.57;100899.38;5049492;28;20087;-78
2023/01/01 04:04:17;;;;;;;3.17;1.52;;;;;;;14.11;67.49;100905.56;5049500;28;20530;-78
2023/01/01 04:06:43;;;;;;;7.30;1.83;;;;;;;14.12;67.44;100896.47;5049338;28;20102;-78
2023/01/01 04:09:13;;;;;;;4.35;1.58;;;;;;;14.11;68.18;100902.88;5049313;28;20036;-78
2023/01/01 04:12:00;;;;;;;7.40;1.73;;;;;;;14.11;68.05;100909.06;5049448;28;20036;-79
2023/01/01 04:14:33;;;;;;;5.03;2.03;;;;;;;14.08;68.36;100909.50;5049343;28;20050;-78
2023/01/01 04:17:00;;;;;;;5.30;2.00;;;;;;;14.08;68.17;100911.38;5049223;28;20133;-77
2023/01/01 04:19:26;;;;;;;5.32;1.85;;;;;;;14.05;68.72;100914.50;5049219;28;20048;-78
2023/01/01 04:21:51;;;;;;;6.15;2.35;;;;;;;14.03;68.03;100915.50;5031308;28;20407;-78
2023/01/01 04:24:17;;;;;;;4.18;2.00;;;;;;;14.04;69.03;100929.75;5049094;28;20040;-78
2023/01/01 04:26:42;;;;;;;7.65;3.08;;;;;;;14.04;68.72;100929.75;5049218;28;20599;-78
2023/01/01 04:29:08;;;;;;;5.72;2.53;;;;;;;14.04;68.40;100910.97;5050198;28;20190;-78
2023/01/01 04:31:34;;;;;;;2.78;1.30;;;;;;;14.03;68.65;100922.75;5052008;28;20088;-78
2023/01/01 04:33:59;;;;;;;5.15;1.75;;;;;;;14.00;69.07;100902.53;5051807;28;20028;-78
2023/01/01 04:36:24;;;;;;;4.25;1.92;;;;;;;13.99;69.21;100894.72;5051848;28;20404;-78
2023/01/01 04:38:50;;;;;;;7.65;2.42;;;;;;;13.98;69.42;100914.53;5051981;28;20029;-78
2023/01/01 04:41:15;;;;;;;6.47;1.92;;;;;;;13.96;70.18;100916.59;5052018;28;20040;-78
2023/01/01 04:43:41;;;;;;;5.45;2.35;;;;;;;13.92;70.13;100918.91;5051951;28;20500;-78
2023/01/01 04:46:06;;;;;;;5.38;2.38;;;;;;;13.90;69.90;100930.88;5051923;28;20037;-78
2023/01/01 04:48:34;;;;;;;3.17;1.75;;;;;;;13.88;70.27;100939.13;5051790;28;20029;-78
2023/01/01 04:51:04;;;;;;;5.78;2.08;;;;;;;13.79;71.00;100930.53;5052056;28;20116;-78
2023/01/01 04:53:31;;;;;;;7.65;1.90;;;;;;;13.83;70.99;100925.56;5051474;28;20464;-78
2023/01/01 04:56:04;;;;;;;9.65;2.78;;;;;;;13.82;71.12;100929.28;5051700;28;20554;-78
2023/01/01 04:58:30;;;;;;;4.05;1.67;;;;;;;13.85;70.82;100938.75;5052181;28;20056;-78
2023/01/01 05:00:56;;;;;;;6.60;1.58;;;;;;;13.88;71.16;100941.81;5043629;28;20590;-78
2023/01/01 05:03:21;;;;;;;5.43;1.98;;;;;;;13.82;71.61;100946.19;5064743;28;20024;-78
2023/01/01 05:05:49;;;;;;;9.60;2.15;;;;;;;13.85;71.72;100938.75;5068589;28;20117;-78
2023/01/01 05:08:14;;;;;;;5.10;2.00;;;;;;;13.84;72.32;100955.88;5069277;28;20147;-78
2023/01/01 05:10:39;;;;;;;2.63;1.25;;;;;;;13.82;72.41;100964.13;5057227;28;20432;-78
2023/01/01 05:13:07;;;;;;;6.65;2.03;;;;;;;13.74;72.57;100948.31;5067390;28;20024;-78
2023/01/01 05:15:35;;;;;;;5.05;1.77;;;;;;;13.78;73.16;100977.16;5057781;28;20542;-78
2023/01/01 05:18:00;;;;;;;3.03;1.52;;;;;;;13.80;72.81;100964.34;5058994;28;20402;-78
2023/01/01 05:20:25;;;;;;;6.65;2.65;;;;;;;13.79;72.79;100976.09;5038703;28;20025;-79
2023/01/01 05:22:51;;;;;;;11.60;3.45;;;;;;;13.78;73.06;100973.63;5062339;28;20437;-78
2023/01/01 05:25:16;;;;;;;5.65;2.13;;;;;;;13.71;73.59;100965.63;5057326;28;20487;-78
2023/01/01 05:27:41;;;;;;;4.32;1.90;;;;;;;13.71;73.69;100984.41;5067543;28;20021;-78
2023/01/01 05:30:07;;;;;;;4.75;2.03;;;;;;;13.71;73.53;100997.00;5062233;28;20036;-79
2023/01/01 05:32:34;;;;;;;5.63;1.70;;;;;;;13.68;74.08;101014.31;5066349;28;20063;-78
2023/01/01 05:35:00;;;;;;;5.80;1.60;;;;;;;13.63;74.59;101016.81;5062630;28;20441;-78
2023/01/01 05:37:25;;;;;;;6.72;1.75;;;;;;;13.59;74.44;101005.69;5063127;28;20082;-78
2023/01/01 05:39:51;;;;;;;8.80;1.98;;;;;;;13.65;74.91;101019.25;5063875;28;20028;-78
2023/01/01 05:42:17;;;;;;;6.32;2.40;;;;;;;13.62;74.95;101017.00;5061076;28;20029;-78
2023/01/01 05:44:43;;;;;;;5.45;2.22;;;;;;;13.62;75.23;101025.88;5035921;28;20036;-78
2023/01/01 05:47:08;;;;;;;7.70;2.50;;;;;;;13.61;75.51;101018.06;5034783;28;20031;-78
2023/01/01 05:49:35;;;;;;;2.70;1.55;;;;;;;13.61;75.39;101016.19;5066231;28;20425;-78
2023/01/01 05:52:00;;;;;;;4.10;1.88;;;;;;;13.60;75.63;101030.66;5068311;28;20804;-78
2023/01/01 05:54:26;;;;;;;4.07;2.30;;;;;;;13.57;76.14;101039.94;5044831;28;20029;-78
2023/01/01 05:56:51;;;;;;;10.27;2.67;;;;;;;13.56;76.15;101029.41;5058445;28;20060;-78
2023/01/01 05:59:17;;;;;;;2.78;1.80;;;;;;;13.54;76.27;101037.66;5051386;28;20040;-78
2023/01/01 06:01:42;;;;;;;3.50;1.40;;;;;;;13.56;76.51;101056.22;5032671;28;20385;-78
2023/01/01 06:04:08;;;;;;;9.45;2.58;;;;;;;13.54;77.33;101047.56;5033149;28;20044;-78
2023/01/01 06:06:33;;;;;;;5.65;1.73;;;;;;;13.52;77.41;101061.19;5047954;28;20025;-78
2023/01/01 06:09:02;;;;;;;3.35;1.80;;;;;;;13.46;77.57;101066.53;5034843;28;20025;-79
2023/01/01 06:11:28;;;;;;;7.53;2.50;;;;;;;13.43;78.15;101075.81;5047124;28;20029;-78
2023/01/01 06:13:55;;;;;;;10.45;2.42;;;;;;;13.38;78.25;101081.81;5049742;28;20036;-78
2023/01/01 06:16:21;;;;;;;5.43;1.60;;;;;;;13.35;78.91;101076.06;5045837;28;20021;-78
2023/01/01 06:18:46;;;;;;;7.03;2.50;;;;;;;13.33;78.84;101078.09;5031953;28;20056;-79
2023/01/01 06:21:17;;;;;;;9.52;2.38;;;;;;;13.31;79.01;101088.22;5044886;28;20087;-78
2023/01/01 06:23:43;;;;;;;7.72;2.25;;;;;;;13.31;79.05;101072.16;5043122;28;20032;-79
2023/01/01 06:26:11;;;;;;;13.50;2.88;;;;;;;13.31;78.66;101086.38;5049619;28;20029;-78
2023/01/01 06:28:37;;;;;;;7.70;1.98;;;;;;;13.30;79.17;101087.38;5049682;28;20017;-78
2023/01/01 06:31:04;;;;;;;7.78;3.13;;;;;;;13.24;79.28;101087.38;5044035;28;20036;-78
2023/01/01 06:33:30;;;;;;;11.02;2.30;;;;;;;13.28;79.85;101110.06;5047307;28;20920;-78
2023/01/01 06:35:56;;;;;;;7.85;2.00;;;;;;;13.26;80.62;101121.00;5050668;28;20479;-78
2023/01/01 06:38:21;;;;;;;5.40;2.20;;;;;;;13.24;83.43;101149.81;5044339;28;20025;-78
2023/01/01 06:40:59;;;;;;;5.95;2.47;;;;;;;13.18;85.45;101160.50;5047220;28;20037;-78
2023/01/01 06:43:24;;;;;;;6.50;2.13;;;;;;;12.97;88.53;101161.53;5048420;28;20033;-78
2023/01/01 06:46:12;;;;;;;8.48;2.65;;;;;;;12.75;91.14;101171.59;5046083;28;20025;-78
2023/01/01 06:48:38;;;;;;;6.97;2.00;;;;;;;12.51;92.96;101187.19;5045820;28;20032;-78
2023/01/01 06:51:18;;;;;;;9.80;2.22;;;;;;;12.33;94.49;101181.56;5045907;28;20029;-79
2023/01/01 06:53:44;;;;;;;8.18;2.45;;;;;;;12.13;97.44;101174.28;5049580;28;20033;-78
2023/01/01 06:56:10;;;;;;;10.25;2.30;;;;;;;11.99;98.84;101178.72;5047778;28;20040;-78
2023/01/01 06:58:35;;;;;;;5.75;2.28;;;;;;;11.87;98.50;101171.47;5047446;28;20053;-78
2023/01/01 07:01:04;;;;;;;6.10;2.72;;;;;;;11.88;99.13;101191.84;5045877;28;20383;-78
2023/01/01 07:03:29;;;;;;;6.85;2.35;;;;;;;11.82;98.92;101180.88;5048967;28;20087;-78
2023/01/01 07:05:54;;;;;;;7.80;3.13;;;;;;;11.75;100.00;101181.88;5044697;28;20036;-79
2023/01/01 07:08:20;;;;;;;7.05;2.95;;;;;;;11.69;100.00;101190.66;5042964;28;20060;-78
2023/01/01 07:10:45;;;;;;;6.97;3.17;;;;;;;11.69;100.00;101201.34;5045379;28;20078;-78
2023/01/01 07:13:10;;;;;;;6.93;3.90;;;;;;;11.56;100.00;101189.56;5038721;28;20052;-78
2023/01/01 07:15:36;;;;;;;10.73;4.38;;;;;;;11.60;100.00;101204.16;5041729;28;20503;-78
2023/01/01 07:18:01;;;;;;;8.65;3.35;;;;;;;11.52;100.00;101198.97;5035889;28;20046;-78
2023/01/01 07:20:27;;;;;;;10.70;3.88;;;;;;;11.46;100.00;101214.94;5045097;28;20476;-78
2023/01/01 07:22:52;;;;;;;11.20;4.65;;;;;;;11.47;100.00;101221.94;5048766;28;20061;-78
2023/01/01 07:25:17;;;;;;;12.38;3.35;;;;;;;11.42;100.00;101211.81;5042575;28;20037;-78
2023/01/01 07:27:43;;;;;;;6.13;2.95;;;;;;;11.43;100.00;101212.66;5041848;28;20071;-78
2023/01/01 07:30:08;;;;;;;5.75;3.13;;;;;;;11.44;100.00;101223.16;5047569;28;20040;-78
2023/01/01 07:32:34;;;;;;;6.97;2.80;;;;;;;11.36;100.00;101229.44;5044545;28;20065;-78
2023/01/01 07:34:59;;;;;;;8.25;3.65;;;;;;;11.39;100.00;101241.59;5046481;28;20029;-77
2023/01/01 07:37:25;;;;;;;12.82;4.05;;;;;;;11.40;100.00;101252.09;5040733;28;20064;-78
2023/01/01 07:39:51;;;;;;;8.40;3.47;;;;;;;11.37;100.00;101240.94;5039052;28;20033;-78
2023/01/01 07:42:16;;;;;;;6.88;2.95;;;;;;;11.34;100.00;101244.84;5049105;28;20036;-78
2023/01/01 07:44:42;;;;;;;8.63;3.40;;;;;;;11.36;100.00;101244.66;5037652;28;20025;-78
2023/01/01 07:47:22;;;;;;;5.30;2.17;;;;;;;11.32;100.00;101249.56;5048388;28;20029;-78
2023/01/01 07:49:48;;;;;;;6.53;2.58;;;;;;;11.30;100.00;101246.25;5043092;28;20025;-78
2023/01/01 07:52:13;;;;;;;2.90;1.77;;;;;;;11.26;100.00;101254.81;5043561;28;20419;-78
2023/01/01 07:54:38;;;;;;;5.25;2.83;;;;;;;11.26;100.00;101255.66;5013509;28;20063;-78
2023/01/01 07:57:04;;;;;;;3.60;1.67;;;;;;;11.25;100.00;101262.00;5043633;28;20021;-78
2023/01/01 07:59:29;;;;;;;3.13;1.17;;;;;;;11.22;100.00;101258.91;5045882;28;20033;-78
2023/01/01 08:01:55;;;;;;;5.45;1.58;;;;;;;11.21;100.00;101273.25;5043016;28;20033;-78
2023/01/01 08:04:20;;;;;;;2.58;1.48;;;;;;;11.17;100.00;101286.16;5045954;28;20119;-78
2023/01/01 08:06:46;;;;;;;8.80;3.50;;;;;;;11.14;100.00;101290.03;5046911;28;20038;-78
2023/01/01 08:09:11;;;;;;;5.32;1.45;;;;;;;11.14;100.00;101305.25;5037952;28;20041;-78
2023/01/01 08:11:36;;;;;;;6.20;1.27;;;;;;;11.13;100.00;101323.13;5049019;28;20370;-78
2023/01/01 08:14:02;;;;;;;9.50;1.30;;;;;;;11.14;100.00;101307.91;5049031;28;20353;-78
2023/01/01 08:16:27;;;;;;;8.52;1.70;;;;;;;11.06;100.00;101321.38;5039389;28;20191;-78
2023/01/01 08:18:53;;;;;;;4.00;1.30;;;;;;;11.07;100.00;101345.19;5052936;28;20032;-78
2023/01/01 08:21:18;;;;;;;7.53;2.03;;;;;;;11.02;100.00;101350.28;5045439;28;20032;-78
2023/01/01 08:23:43;;;;;;;6.22;1.60;;;;;;;10.94;100.00;101353.06;5046374;28;20519;-78
2023/01/01 08:26:16;;;;;;;6.03;1.83;;;;;;;10.87;100.00;101357.47;5047594;28;20383;-78
2023/01/01 08:28:42;;;;;;;2.38;1.50;;;;;;;10.76;100.00;101350.78;5048712;28;20037;-78
2023/01/01 08:31:07;;;;;;;3.83;1.70;;;;;;;10.72;100.00;101357.50;5043814;28;20040;-79
2023/01/01 08:33:33;;;;;;;6.10;2.22;;;;;;;10.64;100.00;101341.59;5045951;28;20400;-78
2023/01/01 08:35:59;;;;;;;1.35;1.20;;;;;;;10.59;100.00;101352.00;5051638;28;20028;-78
2023/01/01 08:38:24;;;;;;;6.78;1.95;;;;;;;10.59;100.00;101346.66;5047114;28;20064;-78
2023/01/01 08:40:50;;;;;;;3.30;1.60;;;;;;;10.59;100.00;101360.00;5050537;28;20057;-78
2023/01/01 08:43:15;;;;;;;7.55;1.90;;;;;;;10.52;100.00;101344.72;5045220;28;20050;-78
2023/01/01 08:45:41;;;;;;;9.88;2.30;;;;;;;10.51;100.00;101340.41;5051214;28;20527;-78
2023/01/01 08:48:06;;;;;;;6.25;1.52;;;;;;;10.56;100.00;101349.66;5052935;28;20387;-78
2023/01/01 08:50:31;;;;;;;10.02;2.47;;;;;;;10.54;100.00;101360.53;5049074;28;20033;-78
2023/01/01 08:52:58;;;;;;;5.55;1.55;;;;;;;10.56;100.00;101373.66;5049232;28;20106;-78
2023/01/01 08:55:23;;;;;;;8.48;2.25;;;;;;;10.56;100.00;101374.53;5048879;28;20442;-79
2023/01/01 08:57:48;;;;;;;6.25;2.15;;;;;;;10.57;100.00;101370.00;5051902;28;20079;-78
2023/01/01 09:00:15;;;;;;;3.42;1.65;;;;;;;10.61;100.00;101393.47;5048798;28;20028;-78
2023/01/01 09:02:41;;;;;;;3.78;1.90;;;;;;;10.60;100.00;101390.97;5050235;28;20037;-78
2023/01/01 09:05:07;;;;;;;5.95;2.10;;;;;;;10.63;100.00;101386.09;5037495;28;20492;-78
2023/01/01 09:07:32;;;;;;;2.65;1.80;;;;;;;10.62;100.00;101379.13;5050037;28;20036;-78
2023/01/01 09:09:58;;;;;;;4.80;2.05;;;;;;;10.61;100.00;101371.28;5049820;28;20029;-78
2023/01/01 09:12:23;;;;;;;4.10;1.58;;;;;;;10.63;100.00;101369.25;5047145;28;20033;-78
2023/01/01 09:14:48;;;;;;;7.28;2.45;;;;;;;10.66;100.00;101366.22;5033531;28;20039;-78
2023/01/01 09:17:14;;;;;;;7.10;2.53;;;;;;;10.66;100.00;101363.56;5049619;28;20379;-78
2023/01/01 09:19:39;;;;;;;3.75;1.58;;;;;;;10.66;100.00;101368.91;5052264;28;20380;-78
2023/01/01 09:22:11;;;;;;;5.35;1.92;;;;;;;10.71;100.00;101377.16;5043796;28;20065;-78
2023/01/01 09:24:36;;;;;;;10.23;2.20;;;;;;;10.73;100.00;101383.16;5046998;28;20103;-78
2023/01/01 09:27:02;;;;;;;5.72;2.28;;;;;;;10.74;100.00;101379.47;5047709;28;20123;-78
2023/01/01 09:29:27;;;;;;;4.90;2.78;;;;;;;10.76;100.00;101372.09;5034319;28;20032;-78
2023/01/01 09:31:52;;;;;;;9.10;2.80;;;;;;;10.78;100.00;101366.59;5041794;28;20399;-78
2023/01/01 09:34:19;;;;;;;5.50;1.90;;;;;;;10.81;100.00;101380.38;5047889;28;20456;-79
2023/01/01 09:36:45;;;;;;;10.25;2.80;;;;;;;10.77;100.00;101381.78;5042126;28;20037;-78
2023/01/01 09:39:12;;;;;;;7.03;2.83;;;;;;;10.81;100.00;101383.06;5051851;28;20029;-78
2023/01/01 09:41:52;;;;;;;8.43;2.88;;;;;;;10.84;100.00;101387.19;5047610;28;20024;-80
2023/01/01 09:44:36;;;;;;;5.38;2.22;;;;;;;10.86;100.00;101393.19;5052112;28;20036;-79
2023/01/01 09:47:04;;;;;;;6.20;3.05;;;;;;;10.88;100.00;101385.81;5045520;28;20025;-79
2023/01/01 09:49:29;;;;;;;11.00;2.70;;;;;;;10.90;100.00;101402.50;5047207;28;20025;-79
2023/01/01 09:51:59;;;;;;;5.90;2.57;;;;;;;10.83;100.00;101398.91;5045536;28;20879;-78
2023/01/01 09:54:32;;;;;;;6.18;2.53;;;;;;;10.91;100.00;101396.13;5045150;28;21054;-78
2023/01/01 09:57:00;;;;;;;9.75;2.60;;;;;;;10.84;100.00;101396.03;5044265;28;20484;-78
2023/01/01 09:59:27;;;;;;;5.35;2.78;;;;;;;10.77;100.00;101395.13;5046685;28;20208;-78
2023/01/01 10:02:15;;;;;;;7.35;3.25;;;;;;;10.74;100.00;101400.81;5050534;28;20026;-78
2023/01/01 10:05:07;;;;;;;16.02;3.55;;;;;;;10.69;100.00;101389.88;5045171;28;20061;-80
2023/01/01 10:07:52;;;;;;;10.73;3.60;;;;;;;10.70;100.00;101392.34;5046603;28;20048;-79
2023/01/01 10:10:26;;;;;;;8.30;3.35;;;;;;;10.68;100.00;101389.03;5043371;28;20081;-79
2023/01/01 10:13:13;;;;;;;5.88;2.45;;;;;;;10.68;100.00;101396.22;5047631;28;20082;-80
2023/01/01 10:15:44;;;;;;;5.32;2.47;;;;;;;10.65;100.00;101383.25;5040537;28;20139;-79
2023/01/01 10:18:20;;;;;;;12.35;2.63;;;;;;;10.66;100.00;101388.41;5042807;28;20488;-80
2023/01/01 10:20:57;;;;;;;4.53;2.40;;;;;;;10.68;100.00;101385.53;5041781;28;20025;-79
2023/01/01 10:23:28;;;;;;;8.93;3.60;;;;;;;10.69;100.00;101381.88;5047419;28;20881;-80
2023/01/01 10:25:57;;;;;;;11.48;3.50;;;;;;;10.66;100.00;101380.41;5047162;28;20039;-79
2023/01/01 10:28:32;;;;;;;9.93;2.97;;;;;;;10.74;100.00;101374.97;5029137;28;20024;-79
2023/01/01 10:31:17;;;;;;;10.35;3.92;;;;;;;10.80;100.00;101384.09;5043682;28;20025;-79
2023/01/01 10:33:45;;;;;;;13.60;3.38;;;;;;;10.72;100.00;101373.50;5039896;28;20720;-78
2023/01/01 10:36:14;;;;;;;11.32;3.83;;;;;;;10.80;100.00;101384.09;5045642;28;20442;-80
2023/01/01 10:38:40;;;;;;;10.15;3.42;;;;;;;10.87;100.00;101381.47;5039406;28;20024;-79
2023/01/01 10:41:09;;;;;;;9.10;3.63;;;;;;;10.89;100.00;101385.63;5029923;28;20040;-79
2023/01/01 10:43:34;;;;;;;10.68;3.92;;;;;;;10.91;100.00;101388.94;5038082;28;20025;-79
2023/01/01 10:46:01;;;;;;;15.20;3.72;;;;;;;10.90;100.00;101387.28;5039740;28;20533;-79
2023/01/01 10:48:31;;;;;;;10.80;3.20;;;;;;;10.97;100.00;101398.03;5044728;28;20033;-79
2023/01/01 10:50:59;;;;;;;12.40;3.20;;;;;;;10.98;100.00;101394.38;5044233;28;20083;-79
2023/01/01 10:53:28;;;;;;;10.57;3.45;;;;;;;11.01;100.00;101393.19;5027137;28;20044;-79
2023/01/01 10:56:01;;;;;;;10.40;4.80;;;;;;;11.04;100.00;101396.28;5044569;28;21373;-79
2023/01/01 10:58:26;;;;;;;7.68;3.13;;;;;;;11.11;100.00;101399.88;5044362;28;20063;-80
2023/01/01 11:00:59;;;;;;;12.70;3.78;;;;;;;11.15;100.00;101394.97;5044831;28;20469;-80
2023/01/01 11:03:25;;;;;;;11.15;3.53;;;;;;;11.22;100.00;101397.75;5031416;28;20025;-80
2023/01/01 11:06:18;;;;;;;11.90;3.20;;;;;;;11.27;100.00;101396.16;5049929;28;20045;-78
2023/01/01 11:08:53;;;;;;;8.50;3.25;;;;;;;11.36;100.00;101405.72;5051171;28;20380;-78
2023/01/01 11:11:41;;;;;;;11.80;3.38;;;;;;;11.47;100.00;101404.38;5058803;28;20025;-79
2023/01/01 11:14:19;;;;;;;7.97;3.13;;;;;;;11.58;100.00;101405.72;5039854;28;20036;-79
2023/01/01 11:16:45;;;;;;;10.30;2.38;;;;;;;11.66;100.00;101408.31;5054175;28;20024;-79
2023/01/01 11:19:20;;;;;;;14.50;4.22;;;;;;;11.72;100.00;101412.06;5049636;28;20029;-78
2023/01/01 11:21:46;;;;;;;7.03;2.70;;;;;;;11.76;100.00;101422.19;5058132;28;20584;-78
2023/01/01 11:24:25;;;;;;;10.75;3.15;;;;;;;11.82;100.00;101418.75;5057419;28;20491;-79
2023/01/01 11:26:52;;;;;;;14.50;3.15;;;;;;;11.89;100.00;101420.66;5049515;28;20028;-78
2023/01/01 11:29:21;;;;;;;7.53;2.97;;;;;;;11.93;100.00;101430.78;5049332;28;20033;-78
2023/01/01 11:31:47;;;;;;;8.27;2.85;;;;;;;11.97;100.00;101425.88;5056218;28;20996;-79
2023/01/01 11:34:38;;;;;;;7.32;2.70;;;;;;;12.01;100.00;101419.97;5057155;28;20510;-78